createdAt,value
2022-11-08T00:00:09.629Z,7.39
2022-11-08T00:02:37.566Z,7.91
2022-11-08T00:05:25.223Z,7.53
2022-11-08T00:08:12.215Z,7.37
2022-11-08T00:10:59.224Z,7.34
2022-11-08T00:13:46.095Z,7.75
2022-11-08T00:16:14.819Z,7.91
2022-11-08T00:18:43.167Z,7.57
2022-11-08T00:21:11.410Z,7.54
2022-11-08T00:23:40.187Z,7.73
2022-11-08T00:26:08.423Z,7.29
2022-11-08T00:28:36.152Z,7.50
2022-11-08T00:31:07.160Z,7.54
2022-11-08T00:33:35.315Z,7.78
2022-11-08T00:36:03.470Z,7.35
2022-11-08T00:38:31.112Z,7.61
2022-11-08T00:40:58.447Z,7.66
2022-11-08T00:43:25.772Z,6.97
2022-11-08T00:45:53.410Z,7.06
2022-11-08T00:48:20.950Z,7.44
2022-11-08T00:50:48.337Z,7.32
2022-11-08T00:53:15.946Z,7.26
2022-11-08T00:55:43.277Z,7.06
2022-11-08T00:58:10.610Z,7.29
2022-11-08T01:00:38.164Z,7.27
2022-11-08T01:03:20.329Z,7.43
2022-11-08T01:05:48.825Z,7.32
2022-11-08T01:08:16.838Z,7.27
2022-11-08T01:10:46.069Z,7.36
2022-11-08T01:13:13.779Z,7.21
2022-11-08T01:15:42.536Z,7.19
2022-11-08T01:18:28.808Z,7.17
2022-11-08T01:20:56.382Z,7.25
2022-11-08T01:23:23.710Z,7.27
2022-11-08T01:25:51.030Z,6.93
2022-11-08T01:28:19.024Z,7.12
2022-11-08T01:30:47.323Z,7.02
2022-11-08T01:33:15.717Z,6.97
2022-11-08T01:35:45.224Z,6.83
2022-11-08T01:38:12.572Z,7.01
2022-11-08T01:40:47.808Z,6.48
2022-11-08T01:43:30.568Z,6.54
2022-11-08T01:46:09.817Z,6.60
2022-11-08T01:48:40.271Z,6.99
2022-11-08T01:51:09.883Z,7.06
2022-11-08T01:53:37.670Z,7.03
2022-11-08T01:56:05.411Z,7.25
2022-11-08T01:58:34.845Z,7.31
2022-11-08T02:01:02.927Z,7.03
2022-11-08T02:03:33.183Z,6.81
2022-11-08T02:06:01.313Z,6.41
2022-11-08T02:08:38.624Z,6.32
2022-11-08T02:11:07.176Z,6.56
2022-11-08T02:13:35.908Z,6.66
2022-11-08T02:16:03.511Z,6.32
2022-11-08T02:18:32.076Z,6.58
2022-11-08T02:21:22.775Z,6.26
2022-11-08T02:23:52.326Z,6.90
2022-11-08T02:26:23.411Z,6.34
2022-11-08T02:28:51.282Z,6.76
2022-11-08T02:31:19.468Z,6.79
2022-11-08T02:33:47.369Z,6.93
2022-11-08T02:36:18.043Z,6.84
2022-11-08T02:38:53.452Z,6.90
2022-11-08T02:41:21.354Z,6.82
2022-11-08T02:43:48.671Z,6.30
2022-11-08T02:46:15.983Z,5.84
2022-11-08T02:48:43.557Z,6.33
2022-11-08T02:51:11.090Z,6.06
2022-11-08T02:53:38.462Z,5.77
2022-11-08T02:56:06.094Z,6.08
2022-11-08T02:58:33.412Z,6.00
2022-11-08T03:01:00.872Z,6.20
2022-11-08T03:03:28.525Z,6.65
2022-11-08T03:05:58.842Z,6.72
2022-11-08T03:08:26.171Z,6.24
2022-11-08T03:27:27.103Z,7.00
2022-11-08T03:29:54.777Z,6.76
2022-11-08T03:32:22.745Z,6.30
2022-11-08T03:34:50.042Z,6.10
2022-11-08T03:37:17.635Z,6.33
2022-11-08T03:39:44.978Z,6.21
2022-11-08T03:42:12.271Z,6.46
2022-11-08T03:44:39.831Z,6.65
2022-11-08T03:47:07.152Z,6.62
2022-11-08T03:49:34.468Z,6.63
2022-11-08T03:52:02.182Z,6.45
2022-11-08T03:54:29.539Z,6.83
2022-11-08T03:56:56.884Z,6.61
2022-11-08T03:59:24.458Z,6.41
2022-11-08T04:01:51.843Z,6.39
2022-11-08T04:04:19.539Z,6.25
2022-11-08T04:06:47.089Z,6.38
2022-11-08T04:09:19.012Z,6.93
2022-11-08T04:12:07.686Z,6.63
2022-11-08T04:14:53.754Z,6.43
2022-11-08T04:17:41.257Z,6.30
2022-11-08T04:20:27.740Z,6.72
2022-11-08T04:22:55.327Z,6.88
2022-11-08T04:25:22.660Z,6.92
2022-11-08T04:27:49.965Z,6.51
2022-11-08T04:30:17.690Z,5.88
2022-11-08T04:32:45.029Z,6.36
2022-11-08T04:35:12.446Z,6.59
2022-11-08T04:37:40.023Z,6.42
2022-11-08T04:40:08.085Z,6.18
2022-11-08T04:42:35.434Z,6.11
2022-11-08T04:45:03.300Z,6.24
2022-11-08T04:47:34.629Z,6.12
2022-11-08T04:50:05.485Z,6.41
2022-11-08T04:52:32.799Z,6.77
2022-11-08T04:55:00.143Z,6.52
2022-11-08T04:57:28.673Z,6.41
2022-11-08T04:59:56.006Z,6.02
2022-11-08T05:02:23.443Z,5.71
2022-11-08T05:04:51.063Z,6.05
2022-11-08T05:07:18.434Z,5.99
2022-11-08T05:09:45.787Z,5.94
2022-11-08T05:12:16.155Z,6.19
2022-11-08T05:14:43.484Z,6.07
2022-11-08T05:17:10.799Z,5.67
2022-11-08T05:19:57.048Z,6.01
2022-11-08T05:22:43.064Z,6.15
2022-11-08T05:25:10.646Z,6.31
2022-11-08T05:27:37.966Z,6.34
2022-11-08T05:30:05.954Z,6.57
2022-11-08T05:32:33.549Z,6.63
2022-11-08T05:35:00.872Z,6.50
2022-11-08T05:37:28.199Z,6.55
2022-11-08T05:39:55.790Z,6.03
2022-11-08T05:42:23.131Z,6.44
2022-11-08T05:44:50.511Z,6.67
2022-11-08T05:47:18.331Z,6.93
2022-11-08T05:49:45.650Z,7.11
2022-11-08T05:52:12.996Z,6.91
2022-11-08T05:54:40.584Z,6.68
2022-11-08T05:57:07.935Z,6.43
2022-11-08T05:59:35.248Z,6.66
2022-11-08T06:02:02.912Z,6.86
2022-11-08T06:04:30.712Z,7.02
2022-11-08T06:06:58.038Z,6.97
2022-11-08T06:09:25.363Z,6.92
2022-11-08T06:11:52.965Z,6.51
2022-11-08T06:14:20.319Z,6.88
2022-11-08T06:16:47.646Z,6.91
2022-11-08T06:19:15.238Z,7.07
2022-11-08T06:21:42.555Z,6.64
2022-11-08T06:24:09.893Z,6.21
2022-11-08T06:26:37.517Z,6.34
2022-11-08T06:29:04.803Z,6.69
2022-11-08T06:31:32.160Z,6.87
2022-11-08T06:33:59.752Z,6.91
2022-11-08T06:36:27.136Z,6.98
2022-11-08T06:38:55.210Z,6.98
2022-11-08T06:41:22.906Z,6.54
2022-11-08T06:43:50.294Z,6.69
2022-11-08T06:46:17.646Z,6.77
2022-11-08T06:48:45.283Z,6.68
2022-11-08T06:51:12.675Z,6.20
2022-11-08T06:53:40.111Z,6.90
2022-11-08T06:56:07.939Z,6.96
2022-11-08T06:58:35.573Z,7.44
2022-11-08T07:01:05.046Z,7.08
2022-11-08T07:03:33.187Z,6.95
2022-11-08T07:06:05.794Z,6.37
2022-11-08T07:08:33.441Z,6.31
2022-11-08T07:11:00.828Z,7.06
2022-11-08T07:13:28.198Z,7.21
2022-11-08T07:15:59.624Z,7.06
2022-11-08T07:18:27.452Z,7.32
2022-11-08T07:20:59.534Z,7.09
2022-11-08T07:23:27.832Z,7.80
2022-11-08T07:25:55.350Z,7.86
2022-11-08T07:28:22.689Z,6.99
2022-11-08T07:30:50.279Z,7.44
2022-11-08T07:33:18.273Z,7.17
2022-11-08T07:35:47.465Z,7.48
2022-11-08T07:38:15.139Z,7.91
2022-11-08T07:40:42.538Z,7.48
2022-11-08T07:43:12.716Z,7.76
2022-11-08T07:45:41.579Z,7.59
2022-11-08T07:48:12.664Z,7.11
2022-11-08T07:50:55.004Z,7.21
2022-11-08T07:53:32.124Z,7.45
2022-11-08T07:56:03.832Z,7.93
2022-11-08T07:58:34.449Z,7.94
2022-11-08T08:01:07.252Z,8.31
2022-11-08T08:03:44.755Z,7.83
2022-11-08T08:06:26.385Z,8.19
2022-11-08T08:08:54.008Z,7.77
2022-11-08T08:11:41.597Z,8.40
2022-11-08T08:14:27.692Z,8.51
2022-11-08T08:16:57.387Z,7.78
2022-11-08T08:19:41.108Z,7.14
2022-11-08T08:22:08.381Z,8.01
2022-11-08T08:24:45.213Z,7.95
2022-11-08T08:27:14.139Z,8.20
2022-11-08T08:29:45.524Z,7.65
2022-11-08T08:32:13.316Z,7.90
2022-11-08T08:34:41.113Z,7.97
2022-11-08T08:37:15.309Z,7.55
2022-11-08T08:39:43.684Z,7.47
2022-11-08T08:42:20.125Z,7.39
2022-11-08T08:44:48.501Z,8.06
2022-11-08T08:47:17.136Z,8.09
2022-11-08T08:49:44.884Z,8.32
2022-11-08T08:52:38.028Z,8.27
2022-11-08T08:55:15.211Z,8.41
2022-11-08T08:57:47.160Z,8.14
2022-11-08T09:03:24.720Z,8.64
2022-11-08T09:05:53.373Z,8.92
2022-11-08T09:08:24.875Z,8.96
2022-11-08T09:10:56.456Z,8.89
2022-11-08T09:13:26.215Z,8.50
2022-11-08T09:15:54.972Z,8.46
2022-11-08T09:18:23.079Z,8.36
2022-11-08T09:20:50.468Z,8.65
2022-11-08T09:23:18.516Z,8.38
2022-11-08T09:25:46.145Z,8.15
2022-11-08T09:28:13.474Z,8.47
2022-11-08T09:30:41.071Z,8.16
2022-11-08T09:33:08.478Z,8.33
2022-11-08T09:35:35.883Z,8.44
2022-11-08T09:38:03.487Z,8.50
2022-11-08T09:40:37.578Z,8.68
2022-11-08T09:43:08.107Z,8.59
2022-11-08T09:45:42.460Z,9.12
2022-11-08T09:48:28.999Z,9.55
2022-11-08T09:50:57.723Z,9.44
2022-11-08T09:53:45.297Z,9.27
2022-11-08T09:56:23.977Z,9.31
2022-11-08T09:59:03.603Z,9.82
2022-11-08T10:01:35.342Z,10.10
2022-11-08T10:04:06.123Z,9.70
2022-11-08T10:07:01.893Z,9.85
2022-11-08T10:09:30.081Z,10.04
2022-11-08T10:12:20.013Z,9.50
2022-11-08T10:15:19.484Z,9.59
2022-11-08T10:18:05.693Z,9.79
2022-11-08T10:20:48.464Z,9.43
2022-11-08T10:23:24.313Z,9.45
2022-11-08T10:25:56.977Z,9.60
2022-11-08T10:28:37.572Z,10.14
2022-11-08T10:31:05.770Z,9.78
2022-11-08T10:33:43.188Z,10.33
2022-11-08T10:36:15.449Z,10.35
2022-11-08T10:38:51.460Z,9.77
2022-11-08T10:41:44.128Z,10.65
2022-11-08T10:44:15.864Z,10.98
2022-11-08T10:46:55.593Z,11.13
2022-11-08T10:49:31.233Z,11.16
2022-11-08T10:52:01.117Z,11.75
2022-11-08T10:54:48.923Z,11.94
2022-11-08T10:57:42.376Z,11.65
2022-11-08T11:00:36.162Z,11.93
2022-11-08T11:03:09.886Z,11.33
2022-11-08T11:05:55.665Z,11.76
2022-11-08T11:08:23.514Z,12.15
2022-11-08T11:10:51.042Z,12.26
2022-11-08T11:13:18.331Z,12.58
2022-11-08T11:15:46.628Z,12.19
2022-11-08T11:18:33.427Z,12.97
2022-11-08T11:21:06.355Z,12.27
2022-11-08T11:23:45.718Z,12.42
2022-11-08T11:26:32.926Z,12.28
2022-11-08T11:29:06.560Z,12.42
2022-11-08T11:31:38.663Z,12.79
2022-11-08T11:34:18.163Z,12.96
2022-11-08T11:36:57.925Z,12.43
2022-11-08T11:39:31.213Z,11.33
2022-11-08T11:42:17.802Z,12.54
2022-11-08T11:45:08.578Z,11.80
2022-11-08T11:47:55.927Z,11.25
2022-11-08T11:50:28.860Z,11.28
2022-11-08T11:52:57.551Z,11.27
2022-11-08T11:55:42.989Z,10.94
2022-11-08T11:58:30.873Z,11.07
2022-11-08T12:01:04.532Z,11.43
2022-11-08T12:03:57.722Z,11.82
2022-11-08T12:07:00.805Z,11.28
2022-11-08T12:09:53.622Z,11.63
2022-11-08T12:12:36.133Z,11.88
2022-11-08T12:15:17.264Z,11.45
2022-11-08T12:17:47.182Z,11.06
2022-11-08T12:20:26.617Z,11.42
2022-11-08T12:23:19.032Z,11.83
2022-11-08T12:25:52.592Z,11.93
2022-11-08T12:28:29.908Z,12.58
2022-11-08T12:31:04.219Z,12.47
2022-11-08T12:33:47.934Z,12.30
2022-11-08T12:36:32.413Z,12.24
2022-11-08T12:39:04.828Z,12.81
2022-11-08T12:41:40.331Z,12.87
2022-11-08T12:44:13.835Z,13.22
2022-11-08T12:46:50.630Z,13.04
2022-11-08T12:49:39.116Z,12.94
2022-11-08T12:52:22.808Z,13.06
2022-11-08T12:55:16.519Z,12.60
2022-11-08T12:57:45.475Z,12.39
2022-11-08T13:00:17.474Z,12.69
2022-11-08T13:03:10.634Z,12.84
2022-11-08T13:05:43.138Z,13.02
2022-11-08T13:08:20.183Z,13.19
2022-11-08T13:10:59.119Z,13.23
2022-11-08T13:13:28.382Z,13.46
2022-11-08T13:16:12.137Z,13.60
2022-11-08T13:18:54.486Z,14.15
2022-11-08T13:21:28.356Z,13.83
2022-11-08T13:24:09.957Z,13.84
2022-11-08T13:26:50.219Z,13.55
2022-11-08T13:29:18.021Z,13.96
2022-11-08T13:31:49.409Z,13.33
2022-11-08T13:34:38.062Z,13.53
2022-11-08T13:37:30.127Z,13.74
2022-11-08T13:40:12.808Z,13.67
2022-11-08T13:42:57.896Z,13.75
2022-11-08T13:45:33.206Z,13.99
2022-11-08T13:48:02.814Z,14.14
2022-11-08T13:50:31.459Z,14.20
2022-11-08T13:53:18.775Z,14.43
2022-11-08T13:55:49.121Z,14.36
2022-11-08T13:58:39.703Z,13.89
2022-11-08T14:01:07.219Z,13.45
2022-11-08T14:03:34.719Z,14.12
2022-11-08T14:06:04.930Z,13.93
2022-11-08T14:09:10.828Z,14.19
2022-11-08T14:12:18.606Z,14.77
2022-11-08T14:14:52.755Z,14.46
2022-11-08T14:17:29.225Z,14.66
2022-11-08T14:19:59.594Z,14.25
2022-11-08T14:22:28.508Z,14.28
2022-11-08T14:25:09.038Z,14.19
2022-11-08T14:27:39.431Z,14.55
2022-11-08T14:30:19.411Z,14.20
2022-11-08T14:32:47.392Z,13.81
2022-11-08T14:35:25.829Z,14.14
2022-11-08T14:37:54.706Z,14.10
2022-11-08T14:40:28.230Z,13.62
2022-11-08T14:42:56.349Z,13.85
2022-11-08T14:45:27.558Z,14.03
2022-11-08T14:48:03.653Z,14.25
2022-11-08T14:50:34.189Z,14.00
2022-11-08T14:53:20.678Z,13.66
2022-11-08T14:55:55.122Z,13.97
2022-11-08T14:58:22.818Z,14.02
2022-11-08T15:00:50.726Z,14.06
2022-11-08T15:03:19.811Z,13.23
2022-11-08T15:05:54.516Z,12.65
2022-11-08T15:08:27.409Z,12.71
2022-11-08T15:11:28.679Z,12.92
2022-11-08T15:14:05.458Z,12.90
2022-11-08T15:16:43.731Z,12.27
2022-11-08T15:19:37.324Z,12.58
2022-11-08T15:22:28.964Z,12.21
2022-11-08T15:25:15.722Z,12.04
2022-11-08T15:27:57.762Z,11.58
2022-11-08T15:30:31.456Z,11.54
2022-11-08T15:32:59.229Z,11.71
2022-11-08T15:35:47.135Z,11.53
2022-11-08T15:38:31.022Z,11.30
2022-11-08T15:41:02.272Z,11.19
2022-11-08T15:43:32.638Z,10.86
2022-11-08T15:46:01.143Z,10.29
2022-11-08T15:48:28.987Z,10.11
2022-11-08T15:50:56.924Z,10.32
2022-11-08T15:53:26.550Z,10.07
2022-11-08T15:55:57.681Z,10.28
2022-11-08T15:58:44.981Z,10.42
2022-11-08T16:01:20.820Z,9.83
2022-11-08T16:03:48.877Z,10.09
2022-11-08T16:06:16.343Z,10.03
2022-11-08T16:08:43.890Z,9.95
2022-11-08T16:11:21.157Z,9.79
2022-11-08T16:13:51.474Z,9.79
2022-11-08T16:16:20.170Z,9.59
2022-11-08T16:18:48.086Z,9.59
2022-11-08T16:21:15.853Z,9.30
2022-11-08T16:23:43.997Z,9.38
2022-11-08T16:26:17.419Z,9.73
2022-11-08T16:28:45.167Z,9.22
2022-11-08T16:31:17.792Z,9.17
2022-11-08T16:33:46.571Z,9.49
2022-11-08T16:36:20.740Z,9.56
2022-11-08T16:38:56.596Z,9.29
2022-11-08T16:41:25.153Z,9.50
2022-11-08T16:43:53.568Z,9.24
2022-11-08T16:46:22.231Z,9.46
2022-11-08T16:48:54.840Z,9.55
2022-11-08T16:51:32.181Z,9.28
2022-11-08T16:54:02.723Z,9.49
2022-11-08T16:56:30.956Z,9.78
2022-11-08T16:58:58.398Z,9.60
2022-11-08T17:01:31.732Z,9.65
2022-11-08T17:03:59.524Z,9.29
2022-11-08T17:06:27.319Z,9.30
2022-11-08T17:08:55.100Z,9.02
2022-11-08T17:11:24.278Z,9.44
2022-11-08T17:13:53.165Z,9.58
2022-11-08T17:16:21.190Z,9.72
2022-11-08T17:18:53.075Z,9.73
2022-11-08T17:24:09.436Z,9.48
2022-11-08T17:26:36.778Z,9.27
2022-11-08T17:29:06.515Z,9.44
2022-11-08T17:31:34.478Z,9.62
2022-11-08T17:34:02.168Z,9.57
2022-11-08T17:36:30.004Z,9.85
2022-11-08T17:38:58.662Z,9.75
2022-11-08T17:41:26.475Z,9.56
2022-11-08T17:43:54.479Z,9.70
2022-11-08T17:46:22.814Z,9.67
2022-11-08T17:48:50.844Z,9.48
2022-11-08T17:51:18.444Z,9.78
2022-11-08T17:53:46.579Z,9.96
2022-11-08T17:56:14.516Z,9.83
2022-11-08T17:58:42.309Z,9.63
2022-11-08T18:01:10.775Z,9.75
2022-11-08T18:03:38.694Z,9.90
2022-11-08T18:06:11.776Z,10.27
2022-11-08T18:08:40.614Z,10.29
2022-11-08T18:11:08.976Z,10.21
2022-11-08T18:13:37.512Z,10.27
2022-11-08T18:16:14.277Z,9.75
2022-11-08T18:18:43.380Z,10.28
2022-11-08T18:21:12.447Z,10.52
2022-11-08T18:23:44.721Z,10.07
2022-11-08T18:26:15.539Z,10.44
2022-11-08T18:28:44.793Z,10.23
2022-11-08T18:31:16.225Z,10.59
2022-11-08T18:33:47.816Z,10.46
2022-11-08T18:36:22.002Z,10.79
2022-11-08T18:38:51.870Z,10.42
2022-11-08T18:41:23.095Z,10.45
2022-11-08T18:43:51.506Z,10.42
2022-11-08T18:46:22.227Z,10.40
2022-11-08T18:48:50.833Z,10.65
2022-11-08T18:51:20.930Z,10.30
2022-11-08T18:53:49.632Z,10.30
2022-11-08T18:56:20.444Z,10.54
2022-11-08T18:58:49.342Z,10.60
2022-11-08T19:01:17.800Z,10.55
2022-11-08T19:03:46.385Z,10.82
2022-11-08T19:06:14.396Z,10.90
2022-11-08T19:08:42.652Z,10.87
2022-11-08T19:11:12.352Z,10.81
2022-11-08T19:13:40.903Z,10.79
2022-11-08T19:16:14.362Z,10.99
2022-11-08T19:18:43.040Z,10.68
2022-11-08T19:21:15.655Z,10.77
2022-11-08T19:23:43.933Z,10.90
2022-11-08T19:26:15.028Z,10.51
2022-11-08T19:28:46.050Z,10.98
2022-11-08T19:31:16.344Z,10.74
2022-11-08T19:33:45.121Z,10.49
2022-11-08T19:36:15.414Z,10.68
2022-11-08T19:38:44.484Z,10.64
2022-11-08T19:41:14.844Z,10.80
2022-11-08T19:43:44.339Z,10.47
2022-11-08T19:46:15.482Z,10.70
2022-11-08T19:48:45.653Z,10.75
2022-11-08T19:51:17.675Z,10.53
2022-11-08T19:53:46.415Z,10.43
2022-11-08T19:56:17.375Z,10.25
2022-11-08T19:58:46.012Z,10.78
2022-11-08T20:01:17.596Z,10.54
2022-11-08T20:03:46.452Z,10.29
2022-11-08T20:06:15.965Z,10.72
2022-11-08T20:08:47.351Z,10.72
2022-11-08T20:11:25.933Z,10.34
2022-11-08T20:13:53.693Z,10.78
2022-11-08T20:16:27.253Z,10.76
2022-11-08T20:18:56.890Z,10.66
2022-11-08T20:21:24.811Z,10.61
2022-11-08T20:23:52.329Z,10.43
2022-11-08T20:26:22.513Z,10.64
2022-11-08T20:28:56.517Z,10.29
2022-11-08T20:31:25.622Z,10.68
2022-11-08T20:33:54.996Z,10.72
2022-11-08T20:36:24.472Z,10.81
2022-11-08T20:38:58.360Z,10.93
2022-11-08T20:41:30.420Z,10.62
2022-11-08T20:43:58.519Z,10.58
2022-11-08T20:46:27.578Z,10.64
2022-11-08T20:49:00.823Z,10.45
2022-11-08T20:51:30.879Z,10.19
2022-11-08T20:54:01.153Z,10.66
2022-11-08T20:56:32.039Z,10.50
2022-11-08T20:59:01.787Z,10.50
2022-11-08T21:01:30.906Z,10.32
2022-11-08T21:03:58.838Z,10.54
2022-11-08T21:06:28.434Z,10.55
2022-11-08T21:08:59.962Z,10.42
2022-11-08T21:11:31.269Z,10.63
2022-11-08T21:13:59.097Z,10.52
2022-11-08T21:16:30.552Z,10.39
2022-11-08T21:19:01.355Z,10.29
2022-11-08T21:21:29.028Z,10.51
2022-11-08T21:23:56.708Z,10.49
2022-11-08T21:26:25.293Z,10.91
2022-11-08T21:28:53.785Z,10.88
2022-11-08T21:31:21.437Z,10.86
2022-11-08T21:33:49.764Z,10.39
2022-11-08T21:36:18.359Z,10.73
2022-11-08T21:38:47.954Z,10.98
2022-11-08T21:41:15.962Z,10.82
2022-11-08T21:43:44.649Z,10.29
2022-11-08T21:46:18.352Z,10.46
2022-11-08T21:48:46.755Z,10.56
